WetterOnline ( http://www.wetteronline.de )

Wetter aktuell Bischofsmais

Aktuelles Wetter: Zwiesel (613m)

6-stündlich | Neueste Meldungen
Ortszeit Temperatur Wetter
Fr, 17.08. 14:00 26.7° C wolkenlos
Fr, 17.08. 8:00 13.6° C wolkenlos
Fr, 17.08. 2:00 12.5° C wolkenlos
Do, 16.08. 20:00 22.7° C wolkig
Do, 16.08. 14:00 23.1° C leicht bewölkt
Do, 16.08. 8:00 13.6° C wolkenlos
Do, 16.08. 2:00 11.8° C leicht bewölkt
Mi, 15.08. 20:00 20.0° C fast wolkenlos
Ortszeit Temperatur Wetter
Fr, 17.08. 18:30 27.1° C bedeckt
Fr, 17.08. 18:20 27.1° C bedeckt
Fr, 17.08. 18:10 27.3° C bewölkt
Fr, 17.08. 18:00 27.7° C wolkig
Fr, 17.08. 17:50 27.7° C bewölkt
Fr, 17.08. 17:40 27.9° C bewölkt
Fr, 17.08. 17:30 28.1° C wolkig
Fr, 17.08. 17:00 28.2° C wolkig
Fr, 17.08. 16:30 27.9° C bewölkt
Fr, 17.08. 16:00 28.5° C wolkig
Fr, 17.08. 15:30 28.6° C fast wolkenlos
Ortszeit Relative Feuchte Sichtweite
Fr, 17.08. 14:00 35% 30 km
Fr, 17.08. 8:00 78% 30 km
Fr, 17.08. 2:00 89% 25 km
Do, 16.08. 20:00 52% 70 km
Do, 16.08. 14:00 46% 55 km
Do, 16.08. 8:00 81% 15 km
Do, 16.08. 2:00 92% 20 km
Mi, 15.08. 20:00 57% 35 km
Ortszeit Relative Feuchte Sichtweite
Fr, 17.08. 18:30 39% 55 km
Fr, 17.08. 18:20 39% -
Fr, 17.08. 18:10 37% -
Fr, 17.08. 18:00 35% 55 km
Fr, 17.08. 17:50 35% -
Fr, 17.08. 17:40 35% -
Fr, 17.08. 17:30 36% 45 km
Fr, 17.08. 17:00 33% 30 km
Fr, 17.08. 16:30 34% 40 km
Fr, 17.08. 16:00 33% 40 km
Fr, 17.08. 15:30 34% 30 km
Ortszeit Niederschlagsmenge Niederschlagsart
Fr, 17.08. 14:00 0.0 l/m2 in 6 Std. -
Fr, 17.08. 8:00 0.0 l/m2 in 12 Std. -
Fr, 17.08. 2:00 0.0 l/m2 in 6 Std. -
Do, 16.08. 20:00 0.0 l/m2 in 12 Std. -
Do, 16.08. 14:00 0.0 l/m2 in 6 Std. -
Do, 16.08. 8:00 0.0 l/m2 in 12 Std. -
Do, 16.08. 2:00 0.0 l/m2 in 6 Std. -
Mi, 15.08. 20:00 0.0 l/m2 in 12 Std. -
Ortszeit Niederschlagsmenge Niederschlagsart
Fr, 17.08. 18:30 0.0 l/m2 in 1 Std. -
Fr, 17.08. 18:20 keine Meldung -
Fr, 17.08. 18:10 keine Meldung -
Fr, 17.08. 18:00 0.0 l/m2 in 1 Std. -
Fr, 17.08. 17:50 keine Meldung -
Fr, 17.08. 17:40 keine Meldung -
Fr, 17.08. 17:30 0.0 l/m2 in 1 Std. -
Fr, 17.08. 17:00 0.0 l/m2 in 1 Std. -
Fr, 17.08. 16:30 0.0 l/m2 in 1 Std. -
Fr, 17.08. 16:00 0.0 l/m2 in 1 Std. -
Fr, 17.08. 15:30 0.0 l/m2 in 1 Std. -
Ortszeit Stärke Spitze Richtung
km/h Bft. km/h Grad Sektor
Fr, 17.08. 14:00 9 2 22 210° SW
Fr, 17.08. 8:00 4 1 11 220° SW
Fr, 17.08. 2:00 6 1 9 230° SW
Do, 16.08. 20:00 4 1 29 210° SW
Do, 16.08. 14:00 9 2 19 110° O
Do, 16.08. 8:00 0 0 7 - -
Do, 16.08. 2:00 0 0 11 - -
Mi, 15.08. 20:00 7 2 25 290° W
Ortszeit Stärke Spitze Richtung
km/h Bft. km/h Grad Sektor
Fr, 17.08. 18:30 7 2 14 190° S
Fr, 17.08. 18:20 7 2 - 190° S
Fr, 17.08. 18:10 7 2 - 240° SW
Fr, 17.08. 18:00 7 2 22 260° W
Fr, 17.08. 17:50 7 2 - 260° W
Fr, 17.08. 17:40 7 2 - 200° S
Fr, 17.08. 17:30 7 2 22 180° S
Fr, 17.08. 17:00 7 2 18 260° W
Fr, 17.08. 16:30 7 2 18 220° SW
Fr, 17.08. 16:00 7 2 18 210° SW
Fr, 17.08. 15:30 9 2 19 180° S
Ortszeit Untergrenze Bedeckung Gattung
total tief tief mittel hoch
Fr, 17.08. 14:00 - 0/8 0/8 - - -
Fr, 17.08. 8:00 - 0/8 0/8 - - -
Fr, 17.08. 2:00 - 0/8 0/8 - - -
Do, 16.08. 20:00 1800 m 7/8 7/8 - - -
Do, 16.08. 14:00 1800 m 2/8 2/8 - - -
Do, 16.08. 8:00 - 0/8 0/8 - - -
Do, 16.08. 2:00 2400 m 2/8 - - - -
Mi, 15.08. 20:00 2700 m 1/8 1/8 - - -
Ortszeit Bedeckungsgrad in Achtel und Wolkenuntergrenze
Fr, 17.08. 18:30 7(2100m) 8(2400m) 8(9000m)
Fr, 17.08. 18:20 7(2100m) 8(2400m) 8(9000m)
Fr, 17.08. 18:10 6(2100m) 8(9000m) 8(10500m)
Fr, 17.08. 18:00 4(2100m) 7(9000m) 8(10500m)
Fr, 17.08. 17:50 4(2100m) 7(9000m) 8(10500m)
Fr, 17.08. 17:40 7(2100m) 7(2400m) 7(9000m)
Fr, 17.08. 17:30 4(1800m) 7(9000m) 7(10500m)
Fr, 17.08. 17:00 3(2100m) 6(2400m) 7(9000m)
Fr, 17.08. 16:30 6(2100m) 7(2400m) 7(9000m)
Fr, 17.08. 16:00 4(2100m) 6(2400m) 7(10500m)
Fr, 17.08. 15:30 2(2100m) 3(2400m)
Ortszeit Luftdruck NN (hPa) Tendenz (hPa in 3 Std.)
Fr, 17.08. 14:00 1013 - 0,5
Fr, 17.08. 8:00 1017 + 0,1
Fr, 17.08. 2:00 1017 - 0,1
Do, 16.08. 20:00 1014 - 0,4
Do, 16.08. 14:00 1016 - 1,2
Do, 16.08. 8:00 1021 0,0
Do, 16.08. 2:00 1022 + 0,2
Mi, 15.08. 20:00 1018 - 0,1
Ortszeit Luftdruck NN (hPa) Tendenz (hPa in 3 Std.)
Fr, 17.08. 18:30 1012 - 0,3
Fr, 17.08. 18:20 1012 keine Meldung
Fr, 17.08. 18:10 1012 keine Meldung
Fr, 17.08. 18:00 1012 - 0,5
Fr, 17.08. 17:50 1012 keine Meldung
Fr, 17.08. 17:40 1012 keine Meldung
Fr, 17.08. 17:30 1012 - 0,5
Fr, 17.08. 17:00 1012 - 0,5
Fr, 17.08. 16:30 1012 - 0,6
Fr, 17.08. 16:00 1012 - 0,5
Fr, 17.08. 15:30 1012 - 0,5
Ortszeit Schneehöhe (cm)
Fr, 17.08. 14:00 -
Fr, 17.08. 8:00 -
Fr, 17.08. 2:00 -
Do, 16.08. 20:00 -
Do, 16.08. 14:00 -
Do, 16.08. 8:00 -
Do, 16.08. 2:00 -
Mi, 15.08. 20:00 -
Ortszeit Schneehöhe (cm)
Fr, 17.08. 18:30 -
Fr, 17.08. 18:20 -
Fr, 17.08. 18:10 -
Fr, 17.08. 18:00 -
Fr, 17.08. 17:50 -
Fr, 17.08. 17:40 -
Fr, 17.08. 17:30 -
Fr, 17.08. 17:00 -
Fr, 17.08. 16:30 -
Fr, 17.08. 16:00 -
Fr, 17.08. 15:30 -
Link zu dieser Seite / Seite empfehlen

Das Wetter in ...